sensor_id;sensor_type;location;lat;lon;timestamp;temperature;humidity
28835;DHT22;15969;51.536;11.884;2023-05-24T00:01:18;10.30;99.90
28835;DHT22;15969;51.536;11.884;2023-05-24T00:03:53;10.20;99.90
28835;DHT22;15969;51.536;11.884;2023-05-24T00:06:23;10.20;99.90
28835;DHT22;15969;51.536;11.884;2023-05-24T00:08:51;10.30;99.90
28835;DHT22;15969;51.536;11.884;2023-05-24T00:11:17;10.20;99.90
28835;DHT22;15969;51.536;11.884;2023-05-24T00:13:43;10.20;99.90
28835;DHT22;15969;51.536;11.884;2023-05-24T00:16:08;10.20;99.90
28835;DHT22;15969;51.536;11.884;2023-05-24T00:18:35;10.20;99.90
28835;DHT22;15969;51.536;11.884;2023-05-24T00:21:05;10.20;99.90
28835;DHT22;15969;51.536;11.884;2023-05-24T00:23:32;10.20;99.90
28835;DHT22;15969;51.536;11.884;2023-05-24T00:25:58;10.20;99.90
28835;DHT22;15969;51.536;11.884;2023-05-24T00:28:25;10.20;99.90
28835;DHT22;15969;51.536;11.884;2023-05-24T00:30:51;10.10;99.90
28835;DHT22;15969;51.536;11.884;2023-05-24T00:33:17;10.10;99.90
28835;DHT22;15969;51.536;11.884;2023-05-24T00:35:43;10.10;99.90
28835;DHT22;15969;51.536;11.884;2023-05-24T00:38:08;10.10;99.90
28835;DHT22;15969;51.536;11.884;2023-05-24T00:40:34;10.10;99.90
28835;DHT22;15969;51.536;11.884;2023-05-24T00:43:00;10.10;99.90
28835;DHT22;15969;51.536;11.884;2023-05-24T00:45:25;10.10;99.90
28835;DHT22;15969;51.536;11.884;2023-05-24T00:47:51;10.10;99.90
28835;DHT22;15969;51.536;11.884;2023-05-24T00:50:17;10.10;99.90
28835;DHT22;15969;51.536;11.884;2023-05-24T00:52:44;10.10;99.90
28835;DHT22;15969;51.536;11.884;2023-05-24T00:55:10;10.10;99.90
28835;DHT22;15969;51.536;11.884;2023-05-24T00:57:36;10.10;99.90
28835;DHT22;15969;51.536;11.884;2023-05-24T01:00:03;10.10;99.90
28835;DHT22;15969;51.536;11.884;2023-05-24T01:02:30;10.10;99.90
28835;DHT22;15969;51.536;11.884;2023-05-24T01:04:57;10.10;99.90
28835;DHT22;15969;51.536;11.884;2023-05-24T01:07:31;10.10;99.90
28835;DHT22;15969;51.536;11.884;2023-05-24T01:10:30;10.10;99.90
28835;DHT22;15969;51.536;11.884;2023-05-24T01:13:35;10.10;99.90
28835;DHT22;15969;51.536;11.884;2023-05-24T01:16:21;10.20;99.90
28835;DHT22;15969;51.536;11.884;2023-05-24T01:18:54;10.20;99.90
28835;DHT22;15969;51.536;11.884;2023-05-24T01:24:29;10.10;99.90
28835;DHT22;15969;51.536;11.884;2023-05-24T01:27:04;10.10;99.90
28835;DHT22;15969;51.536;11.884;2023-05-24T01:29:33;10.10;99.90
28835;DHT22;15969;51.536;11.884;2023-05-24T01:32:00;10.00;99.90
28835;DHT22;15969;51.536;11.884;2023-05-24T01:34:26;10.00;99.90
28835;DHT22;15969;51.536;11.884;2023-05-24T01:36:51;9.90;99.90
28835;DHT22;15969;51.536;11.884;2023-05-24T01:39:18;9.80;99.90
28835;DHT22;15969;51.536;11.884;2023-05-24T01:42:15;9.90;99.90
28835;DHT22;15969;51.536;11.884;2023-05-24T01:50:25;9.70;99.90
28835;DHT22;15969;51.536;11.884;2023-05-24T01:52:54;9.70;99.90
28835;DHT22;15969;51.536;11.884;2023-05-24T01:55:26;9.80;99.90
28835;DHT22;15969;51.536;11.884;2023-05-24T01:57:53;9.60;99.90
28835;DHT22;15969;51.536;11.884;2023-05-24T02:00:24;9.60;99.90
28835;DHT22;15969;51.536;11.884;2023-05-24T02:02:50;9.60;99.90
28835;DHT22;15969;51.536;11.884;2023-05-24T02:05:17;9.50;99.90
28835;DHT22;15969;51.536;11.884;2023-05-24T02:07:42;9.50;99.90
28835;DHT22;15969;51.536;11.884;2023-05-24T02:10:08;9.50;99.90
28835;DHT22;15969;51.536;11.884;2023-05-24T02:12:34;9.50;99.90
28835;DHT22;15969;51.536;11.884;2023-05-24T02:15:00;9.50;99.90
28835;DHT22;15969;51.536;11.884;2023-05-24T02:17:26;9.50;99.90
28835;DHT22;15969;51.536;11.884;2023-05-24T02:19:52;9.60;99.90
28835;DHT22;15969;51.536;11.884;2023-05-24T02:22:17;9.50;99.90
28835;DHT22;15969;51.536;11.884;2023-05-24T02:24:46;9.50;99.90
28835;DHT22;15969;51.536;11.884;2023-05-24T02:27:12;9.50;99.90
28835;DHT22;15969;51.536;11.884;2023-05-24T02:29:38;9.60;99.90
28835;DHT22;15969;51.536;11.884;2023-05-24T02:32:06;9.60;99.90
28835;DHT22;15969;51.536;11.884;2023-05-24T02:34:31;9.60;99.90
28835;DHT22;15969;51.536;11.884;2023-05-24T02:36:57;9.50;99.90
28835;DHT22;15969;51.536;11.884;2023-05-24T02:39:23;9.60;99.90
28835;DHT22;15969;51.536;11.884;2023-05-24T02:41:48;9.60;99.90
28835;DHT22;15969;51.536;11.884;2023-05-24T02:44:14;9.50;99.90
28835;DHT22;15969;51.536;11.884;2023-05-24T02:46:40;9.60;99.90
28835;DHT22;15969;51.536;11.884;2023-05-24T02:49:06;9.60;99.90
28835;DHT22;15969;51.536;11.884;2023-05-24T02:51:31;9.60;99.90
28835;DHT22;15969;51.536;11.884;2023-05-24T02:53:57;9.60;99.90
28835;DHT22;15969;51.536;11.884;2023-05-24T02:56:23;9.60;99.90
28835;DHT22;15969;51.536;11.884;2023-05-24T02:58:50;9.70;99.90
28835;DHT22;15969;51.536;11.884;2023-05-24T03:01:18;9.60;99.90
28835;DHT22;15969;51.536;11.884;2023-05-24T03:03:45;9.70;99.90
28835;DHT22;15969;51.536;11.884;2023-05-24T03:06:11;9.60;99.90
28835;DHT22;15969;51.536;11.884;2023-05-24T03:08:39;9.60;99.90
28835;DHT22;15969;51.536;11.884;2023-05-24T03:11:04;9.60;99.90
28835;DHT22;15969;51.536;11.884;2023-05-24T03:13:30;9.60;99.90
28835;DHT22;15969;51.536;11.884;2023-05-24T03:15:56;9.60;99.90
28835;DHT22;15969;51.536;11.884;2023-05-24T03:18:22;9.60;99.90
28835;DHT22;15969;51.536;11.884;2023-05-24T03:20:47;9.60;99.90
28835;DHT22;15969;51.536;11.884;2023-05-24T03:23:13;9.60;99.90
28835;DHT22;15969;51.536;11.884;2023-05-24T03:25:39;9.50;99.90
28835;DHT22;15969;51.536;11.884;2023-05-24T03:28:05;9.60;99.90
28835;DHT22;15969;51.536;11.884;2023-05-24T03:30:32;9.50;99.90
28835;DHT22;15969;51.536;11.884;2023-05-24T03:32:57;9.60;99.90
28835;DHT22;15969;51.536;11.884;2023-05-24T03:35:23;9.60;99.90
28835;DHT22;15969;51.536;11.884;2023-05-24T03:37:49;9.60;99.90
28835;DHT22;15969;51.536;11.884;2023-05-24T03:40:14;9.60;99.90
28835;DHT22;15969;51.536;11.884;2023-05-24T03:42:40;9.60;99.90
28835;DHT22;15969;51.536;11.884;2023-05-24T03:45:06;9.60;99.90
28835;DHT22;15969;51.536;11.884;2023-05-24T03:47:32;9.60;99.90
28835;DHT22;15969;51.536;11.884;2023-05-24T03:49:58;9.60;99.90
28835;DHT22;15969;51.536;11.884;2023-05-24T03:52:24;9.50;99.90
28835;DHT22;15969;51.536;11.884;2023-05-24T03:54:50;9.60;99.90
28835;DHT22;15969;51.536;11.884;2023-05-24T03:57:16;9.60;99.90
28835;DHT22;15969;51.536;11.884;2023-05-24T03:59:42;9.60;99.90
28835;DHT22;15969;51.536;11.884;2023-05-24T04:02:08;9.50;99.90
28835;DHT22;15969;51.536;11.884;2023-05-24T04:04:34;9.50;99.90
28835;DHT22;15969;51.536;11.884;2023-05-24T04:07:01;9.50;99.90
28835;DHT22;15969;51.536;11.884;2023-05-24T04:09:27;9.50;99.90
28835;DHT22;15969;51.536;11.884;2023-05-24T04:11:52;9.50;99.90
28835;DHT22;15969;51.536;11.884;2023-05-24T04:14:18;9.60;99.90
28835;DHT22;15969;51.536;11.884;2023-05-24T04:16:44;9.60;99.90
28835;DHT22;15969;51.536;11.884;2023-05-24T04:19:10;9.50;99.90
28835;DHT22;15969;51.536;11.884;2023-05-24T04:21:39;9.50;99.90
28835;DHT22;15969;51.536;11.884;2023-05-24T04:24:04;9.60;99.90
28835;DHT22;15969;51.536;11.884;2023-05-24T04:26:30;9.60;99.90
28835;DHT22;15969;51.536;11.884;2023-05-24T04:28:58;9.60;99.90
28835;DHT22;15969;51.536;11.884;2023-05-24T04:31:24;9.70;99.90
28835;DHT22;15969;51.536;11.884;2023-05-24T04:33:55;9.70;99.90
28835;DHT22;15969;51.536;11.884;2023-05-24T04:36:23;9.70;99.90
28835;DHT22;15969;51.536;11.884;2023-05-24T04:38:49;9.80;99.90
28835;DHT22;15969;51.536;11.884;2023-05-24T04:41:18;9.80;99.90
28835;DHT22;15969;51.536;11.884;2023-05-24T04:43:44;9.70;99.90
28835;DHT22;15969;51.536;11.884;2023-05-24T04:46:10;9.70;99.90
28835;DHT22;15969;51.536;11.884;2023-05-24T04:48:35;9.80;99.90
28835;DHT22;15969;51.536;11.884;2023-05-24T04:51:01;9.80;99.90
28835;DHT22;15969;51.536;11.884;2023-05-24T04:53:27;9.80;99.90
28835;DHT22;15969;51.536;11.884;2023-05-24T04:55:52;9.80;99.90
28835;DHT22;15969;51.536;11.884;2023-05-24T04:58:18;9.90;99.90
28835;DHT22;15969;51.536;11.884;2023-05-24T05:00:44;9.90;99.90
28835;DHT22;15969;51.536;11.884;2023-05-24T05:03:09;9.90;99.90
28835;DHT22;15969;51.536;11.884;2023-05-24T05:05:35;9.90;99.90
28835;DHT22;15969;51.536;11.884;2023-05-24T05:08:02;10.00;99.90
28835;DHT22;15969;51.536;11.884;2023-05-24T05:10:28;10.00;99.90
28835;DHT22;15969;51.536;11.884;2023-05-24T05:12:54;10.00;99.90
28835;DHT22;15969;51.536;11.884;2023-05-24T05:15:21;10.10;99.90
28835;DHT22;15969;51.536;11.884;2023-05-24T05:17:48;10.10;99.90
28835;DHT22;15969;51.536;11.884;2023-05-24T05:20:13;10.10;99.90
28835;DHT22;15969;51.536;11.884;2023-05-24T05:22:44;10.20;99.90
28835;DHT22;15969;51.536;11.884;2023-05-24T05:25:13;10.20;99.90
28835;DHT22;15969;51.536;11.884;2023-05-24T05:27:39;10.30;99.90
28835;DHT22;15969;51.536;11.884;2023-05-24T05:30:05;10.30;99.90
28835;DHT22;15969;51.536;11.884;2023-05-24T05:32:31;10.30;99.90
28835;DHT22;15969;51.536;11.884;2023-05-24T05:34:56;10.30;99.90
28835;DHT22;15969;51.536;11.884;2023-05-24T05:37:22;10.40;99.90
28835;DHT22;15969;51.536;11.884;2023-05-24T05:39:48;10.40;99.90
28835;DHT22;15969;51.536;11.884;2023-05-24T05:42:14;10.50;99.90
28835;DHT22;15969;51.536;11.884;2023-05-24T05:44:39;10.50;99.90
28835;DHT22;15969;51.536;11.884;2023-05-24T05:47:05;10.60;99.90
28835;DHT22;15969;51.536;11.884;2023-05-24T05:49:32;10.60;99.90
28835;DHT22;15969;51.536;11.884;2023-05-24T05:52:01;10.60;99.90
28835;DHT22;15969;51.536;11.884;2023-05-24T05:54:27;10.70;99.90
28835;DHT22;15969;51.536;11.884;2023-05-24T05:56:53;10.70;99.90
28835;DHT22;15969;51.536;11.884;2023-05-24T05:59:18;10.80;99.90
28835;DHT22;15969;51.536;11.884;2023-05-24T06:01:45;10.80;99.90
28835;DHT22;15969;51.536;11.884;2023-05-24T06:04:13;10.90;99.90
28835;DHT22;15969;51.536;11.884;2023-05-24T06:06:41;10.90;99.90
28835;DHT22;15969;51.536;11.884;2023-05-24T06:09:08;11.00;99.90
28835;DHT22;15969;51.536;11.884;2023-05-24T06:11:34;11.00;99.90
28835;DHT22;15969;51.536;11.884;2023-05-24T06:13:59;11.10;99.90
28835;DHT22;15969;51.536;11.884;2023-05-24T06:16:25;11.20;99.90
28835;DHT22;15969;51.536;11.884;2023-05-24T06:18:51;11.20;99.90
28835;DHT22;15969;51.536;11.884;2023-05-24T06:21:17;11.20;99.90
28835;DHT22;15969;51.536;11.884;2023-05-24T06:23:43;11.20;99.90
28835;DHT22;15969;51.536;11.884;2023-05-24T06:26:08;11.30;99.90
28835;DHT22;15969;51.536;11.884;2023-05-24T06:28:35;11.30;99.90
28835;DHT22;15969;51.536;11.884;2023-05-24T06:31:02;11.30;99.90
28835;DHT22;15969;51.536;11.884;2023-05-24T06:33:28;11.40;99.90
28835;DHT22;15969;51.536;11.884;2023-05-24T06:35:54;11.50;99.90
28835;DHT22;15969;51.536;11.884;2023-05-24T06:38:19;11.60;99.90
28835;DHT22;15969;51.536;11.884;2023-05-24T06:40:45;11.60;99.90
28835;DHT22;15969;51.536;11.884;2023-05-24T06:43:11;11.70;99.90
28835;DHT22;15969;51.536;11.884;2023-05-24T06:45:37;11.80;99.90
28835;DHT22;15969;51.536;11.884;2023-05-24T06:48:02;11.80;99.90
28835;DHT22;15969;51.536;11.884;2023-05-24T06:50:28;11.80;99.90
28835;DHT22;15969;51.536;11.884;2023-05-24T06:52:54;11.80;99.90
28835;DHT22;15969;51.536;11.884;2023-05-24T06:55:19;12.00;99.90
28835;DHT22;15969;51.536;11.884;2023-05-24T06:57:45;12.10;99.90
28835;DHT22;15969;51.536;11.884;2023-05-24T07:00:11;12.20;99.90
28835;DHT22;15969;51.536;11.884;2023-05-24T07:02:38;12.30;99.90
28835;DHT22;15969;51.536;11.884;2023-05-24T07:05:04;12.40;99.90
28835;DHT22;15969;51.536;11.884;2023-05-24T07:07:32;12.50;99.90
28835;DHT22;15969;51.536;11.884;2023-05-24T07:09:58;12.60;99.90
28835;DHT22;15969;51.536;11.884;2023-05-24T07:12:23;12.60;99.90
28835;DHT22;15969;51.536;11.884;2023-05-24T07:14:49;12.70;99.90
28835;DHT22;15969;51.536;11.884;2023-05-24T07:17:15;12.80;99.90
28835;DHT22;15969;51.536;11.884;2023-05-24T07:19:41;12.80;99.90
28835;DHT22;15969;51.536;11.884;2023-05-24T07:22:07;12.80;99.90
28835;DHT22;15969;51.536;11.884;2023-05-24T07:24:32;13.00;99.90
28835;DHT22;15969;51.536;11.884;2023-05-24T07:26:59;12.90;99.90
28835;DHT22;15969;51.536;11.884;2023-05-24T07:29:24;13.00;99.90
28835;DHT22;15969;51.536;11.884;2023-05-24T07:31:50;13.00;99.90
28835;DHT22;15969;51.536;11.884;2023-05-24T07:34:18;13.00;99.90
28835;DHT22;15969;51.536;11.884;2023-05-24T07:36:45;13.00;99.90
28835;DHT22;15969;51.536;11.884;2023-05-24T07:39:12;13.00;99.90
28835;DHT22;15969;51.536;11.884;2023-05-24T07:41:40;13.00;99.90
28835;DHT22;15969;51.536;11.884;2023-05-24T07:44:06;13.00;99.90
28835;DHT22;15969;51.536;11.884;2023-05-24T07:46:31;12.90;99.90
28835;DHT22;15969;51.536;11.884;2023-05-24T07:48:58;12.90;99.90
28835;DHT22;15969;51.536;11.884;2023-05-24T07:51:24;12.90;99.90
28835;DHT22;15969;51.536;11.884;2023-05-24T07:53:49;12.90;99.90
28835;DHT22;15969;51.536;11.884;2023-05-24T07:56:15;13.00;99.90
28835;DHT22;15969;51.536;11.884;2023-05-24T07:58:41;13.00;99.90
28835;DHT22;15969;51.536;11.884;2023-05-24T08:01:11;13.10;99.90
28835;DHT22;15969;51.536;11.884;2023-05-24T08:03:37;13.20;99.90
28835;DHT22;15969;51.536;11.884;2023-05-24T08:06:04;13.20;99.90
28835;DHT22;15969;51.536;11.884;2023-05-24T08:08:29;13.20;99.90
28835;DHT22;15969;51.536;11.884;2023-05-24T08:10:55;13.20;99.90
28835;DHT22;15969;51.536;11.884;2023-05-24T08:13:21;13.20;99.90
28835;DHT22;15969;51.536;11.884;2023-05-24T08:15:47;13.20;99.90
28835;DHT22;15969;51.536;11.884;2023-05-24T08:18:13;13.20;99.90
28835;DHT22;15969;51.536;11.884;2023-05-24T08:20:38;13.20;99.90
28835;DHT22;15969;51.536;11.884;2023-05-24T08:23:05;13.20;99.90
28835;DHT22;15969;51.536;11.884;2023-05-24T08:25:30;13.10;99.90
28835;DHT22;15969;51.536;11.884;2023-05-24T08:27:57;13.30;99.90
28835;DHT22;15969;51.536;11.884;2023-05-24T08:30:22;13.50;99.90
28835;DHT22;15969;51.536;11.884;2023-05-24T08:32:49;13.60;99.90
28835;DHT22;15969;51.536;11.884;2023-05-24T08:35:15;13.60;99.90
28835;DHT22;15969;51.536;11.884;2023-05-24T08:37:41;13.60;99.90
28835;DHT22;15969;51.536;11.884;2023-05-24T08:40:07;13.60;99.90
28835;DHT22;15969;51.536;11.884;2023-05-24T08:42:37;13.60;99.90
28835;DHT22;15969;51.536;11.884;2023-05-24T08:45:07;13.50;99.90
28835;DHT22;15969;51.536;11.884;2023-05-24T08:47:35;13.60;99.90
28835;DHT22;15969;51.536;11.884;2023-05-24T08:50:02;13.50;99.90
28835;DHT22;15969;51.536;11.884;2023-05-24T08:52:28;13.60;99.90
28835;DHT22;15969;51.536;11.884;2023-05-24T08:54:57;13.50;99.90
28835;DHT22;15969;51.536;11.884;2023-05-24T08:57:25;13.50;99.90
28835;DHT22;15969;51.536;11.884;2023-05-24T08:59:52;13.50;99.90
28835;DHT22;15969;51.536;11.884;2023-05-24T09:02:20;13.50;99.90
28835;DHT22;15969;51.536;11.884;2023-05-24T09:04:48;13.20;99.90
28835;DHT22;15969;51.536;11.884;2023-05-24T09:07:19;13.20;99.90
28835;DHT22;15969;51.536;11.884;2023-05-24T09:10:02;13.10;99.90
28835;DHT22;15969;51.536;11.884;2023-05-24T09:12:30;13.10;99.90
28835;DHT22;15969;51.536;11.884;2023-05-24T09:15:01;13.10;99.90
28835;DHT22;15969;51.536;11.884;2023-05-24T09:17:38;13.20;99.90
28835;DHT22;15969;51.536;11.884;2023-05-24T09:20:05;13.20;99.90
28835;DHT22;15969;51.536;11.884;2023-05-24T09:22:35;13.20;99.90
28835;DHT22;15969;51.536;11.884;2023-05-24T09:25:04;13.20;99.90
28835;DHT22;15969;51.536;11.884;2023-05-24T09:27:34;13.20;99.90
28835;DHT22;15969;51.536;11.884;2023-05-24T09:30:01;13.20;99.90
28835;DHT22;15969;51.536;11.884;2023-05-24T09:32:29;13.20;99.90
28835;DHT22;15969;51.536;11.884;2023-05-24T09:34:57;13.20;99.90
28835;DHT22;15969;51.536;11.884;2023-05-24T09:37:24;13.20;99.90
28835;DHT22;15969;51.536;11.884;2023-05-24T09:39:52;13.20;99.90
28835;DHT22;15969;51.536;11.884;2023-05-24T09:42:22;12.90;99.90
28835;DHT22;15969;51.536;11.884;2023-05-24T09:45:01;13.10;99.90
28835;DHT22;15969;51.536;11.884;2023-05-24T09:47:35;13.20;99.90
28835;DHT22;15969;51.536;11.884;2023-05-24T09:50:04;13.30;99.90
28835;DHT22;15969;51.536;11.884;2023-05-24T09:52:31;13.40;99.90
28835;DHT22;15969;51.536;11.884;2023-05-24T09:55:10;13.40;99.90
28835;DHT22;15969;51.536;11.884;2023-05-24T09:57:43;13.50;99.90
28835;DHT22;15969;51.536;11.884;2023-05-24T10:00:10;13.50;99.90
28835;DHT22;15969;51.536;11.884;2023-05-24T10:02:41;13.50;99.90
28835;DHT22;15969;51.536;11.884;2023-05-24T10:05:09;13.50;99.90
28835;DHT22;15969;51.536;11.884;2023-05-24T10:07:36;13.60;99.90
28835;DHT22;15969;51.536;11.884;2023-05-24T10:10:03;13.80;99.90
28835;DHT22;15969;51.536;11.884;2023-05-24T10:12:30;13.90;99.90
28835;DHT22;15969;51.536;11.884;2023-05-24T10:14:56;13.90;99.90
28835;DHT22;15969;51.536;11.884;2023-05-24T10:17:23;14.10;99.90
28835;DHT22;15969;51.536;11.884;2023-05-24T10:19:52;14.10;99.90
28835;DHT22;15969;51.536;11.884;2023-05-24T10:22:20;14.10;99.90
28835;DHT22;15969;51.536;11.884;2023-05-24T10:24:52;14.00;99.90
28835;DHT22;15969;51.536;11.884;2023-05-24T10:27:25;13.90;99.90
28835;DHT22;15969;51.536;11.884;2023-05-24T10:30:25;13.90;99.90
28835;DHT22;15969;51.536;11.884;2023-05-24T10:33:11;14.00;99.90
28835;DHT22;15969;51.536;11.884;2023-05-24T10:35:38;13.90;99.90
28835;DHT22;15969;51.536;11.884;2023-05-24T10:38:05;13.80;99.90
28835;DHT22;15969;51.536;11.884;2023-05-24T10:40:40;13.90;99.90
28835;DHT22;15969;51.536;11.884;2023-05-24T10:43:06;13.80;99.90
28835;DHT22;15969;51.536;11.884;2023-05-24T10:45:36;13.70;99.90
28835;DHT22;15969;51.536;11.884;2023-05-24T10:50:54;13.70;99.90
28835;DHT22;15969;51.536;11.884;2023-05-24T10:53:26;13.70;99.90
28835;DHT22;15969;51.536;11.884;2023-05-24T10:55:59;13.50;99.90
28835;DHT22;15969;51.536;11.884;2023-05-24T11:00:59;13.50;99.90
28835;DHT22;15969;51.536;11.884;2023-05-24T11:03:31;13.40;99.90
28835;DHT22;15969;51.536;11.884;2023-05-24T11:05:57;13.40;99.90
28835;DHT22;15969;51.536;11.884;2023-05-24T11:08:32;13.50;99.90
28835;DHT22;15969;51.536;11.884;2023-05-24T11:11:07;13.60;99.90
28835;DHT22;15969;51.536;11.884;2023-05-24T11:13:35;13.70;99.90
28835;DHT22;15969;51.536;11.884;2023-05-24T11:16:02;13.70;99.90
28835;DHT22;15969;51.536;11.884;2023-05-24T11:18:28;13.70;99.90
28835;DHT22;15969;51.536;11.884;2023-05-24T11:20:53;13.80;99.90
28835;DHT22;15969;51.536;11.884;2023-05-24T11:23:21;14.00;99.90
28835;DHT22;15969;51.536;11.884;2023-05-24T11:25:47;14.00;99.90
28835;DHT22;15969;51.536;11.884;2023-05-24T11:28:13;14.00;99.90
28835;DHT22;15969;51.536;11.884;2023-05-24T11:30:44;14.10;99.90
28835;DHT22;15969;51.536;11.884;2023-05-24T11:33:17;14.20;99.90
28835;DHT22;15969;51.536;11.884;2023-05-24T11:35:44;14.30;99.90
28835;DHT22;15969;51.536;11.884;2023-05-24T11:38:11;14.40;99.90
28835;DHT22;15969;51.536;11.884;2023-05-24T11:40:40;14.40;99.80
28835;DHT22;15969;51.536;11.884;2023-05-24T11:43:16;14.50;99.40
28835;DHT22;15969;51.536;11.884;2023-05-24T11:45:45;14.60;99.90
28835;DHT22;15969;51.536;11.884;2023-05-24T11:48:16;14.70;99.30
28835;DHT22;15969;51.536;11.884;2023-05-24T11:50:44;14.80;99.30
28835;DHT22;15969;51.536;11.884;2023-05-24T11:53:12;14.90;99.90
28835;DHT22;15969;51.536;11.884;2023-05-24T11:55:40;15.10;98.60
28835;DHT22;15969;51.536;11.884;2023-05-24T12:00:42;15.30;99.00
28835;DHT22;15969;51.536;11.884;2023-05-24T12:03:08;15.40;98.20
28835;DHT22;15969;51.536;11.884;2023-05-24T12:05:35;15.50;97.60
28835;DHT22;15969;51.536;11.884;2023-05-24T12:08:08;15.60;97.60
28835;DHT22;15969;51.536;11.884;2023-05-24T12:10:35;15.60;96.90
28835;DHT22;15969;51.536;11.884;2023-05-24T12:13:03;15.70;96.30
28835;DHT22;15969;51.536;11.884;2023-05-24T12:15:42;15.80;96.40
28835;DHT22;15969;51.536;11.884;2023-05-24T12:18:22;15.70;96.40
28835;DHT22;15969;51.536;11.884;2023-05-24T12:20:49;15.80;97.30
28835;DHT22;15969;51.536;11.884;2023-05-24T12:23:18;15.70;96.70
28835;DHT22;15969;51.536;11.884;2023-05-24T12:25:44;15.80;97.20
28835;DHT22;15969;51.536;11.884;2023-05-24T12:28:11;15.90;97.40
28835;DHT22;15969;51.536;11.884;2023-05-24T12:30:37;15.90;97.90
28835;DHT22;15969;51.536;11.884;2023-05-24T12:33:10;15.80;98.30
28835;DHT22;15969;51.536;11.884;2023-05-24T12:35:39;15.90;97.60
28835;DHT22;15969;51.536;11.884;2023-05-24T12:38:08;15.80;97.00
28835;DHT22;15969;51.536;11.884;2023-05-24T12:40:34;15.80;97.60
28835;DHT22;15969;51.536;11.884;2023-05-24T12:43:02;15.90;96.30
28835;DHT22;15969;51.536;11.884;2023-05-24T12:45:28;15.70;96.20
28835;DHT22;15969;51.536;11.884;2023-05-24T12:47:55;15.80;96.70
28835;DHT22;15969;51.536;11.884;2023-05-24T12:50:24;15.80;97.30
28835;DHT22;15969;51.536;11.884;2023-05-24T12:52:51;15.90;96.90
28835;DHT22;15969;51.536;11.884;2023-05-24T12:55:25;16.00;97.20
28835;DHT22;15969;51.536;11.884;2023-05-24T12:57:52;16.10;96.40
28835;DHT22;15969;51.536;11.884;2023-05-24T13:00:20;16.20;96.00
28835;DHT22;15969;51.536;11.884;2023-05-24T13:02:47;16.30;96.30
28835;DHT22;15969;51.536;11.884;2023-05-24T13:05:13;16.40;95.40
28835;DHT22;15969;51.536;11.884;2023-05-24T13:07:41;16.50;93.80
28835;DHT22;15969;51.536;11.884;2023-05-24T13:10:08;16.60;94.50
28835;DHT22;15969;51.536;11.884;2023-05-24T13:12:33;16.70;94.90
28835;DHT22;15969;51.536;11.884;2023-05-24T13:15:00;16.90;93.60
28835;DHT22;15969;51.536;11.884;2023-05-24T13:17:26;16.90;91.90
28835;DHT22;15969;51.536;11.884;2023-05-24T13:19:51;17.00;92.10
28835;DHT22;15969;51.536;11.884;2023-05-24T13:22:18;17.10;91.60
28835;DHT22;15969;51.536;11.884;2023-05-24T13:24:44;17.20;91.80
28835;DHT22;15969;51.536;11.884;2023-05-24T13:27:10;17.30;92.40
28835;DHT22;15969;51.536;11.884;2023-05-24T13:29:36;17.40;92.10
28835;DHT22;15969;51.536;11.884;2023-05-24T13:32:02;17.60;91.40
28835;DHT22;15969;51.536;11.884;2023-05-24T13:34:27;17.60;91.20
28835;DHT22;15969;51.536;11.884;2023-05-24T13:36:54;17.60;91.90
28835;DHT22;15969;51.536;11.884;2023-05-24T13:39:20;17.50;92.40
28835;DHT22;15969;51.536;11.884;2023-05-24T13:41:47;17.60;92.90
28835;DHT22;15969;51.536;11.884;2023-05-24T13:44:13;17.50;92.60
28835;DHT22;15969;51.536;11.884;2023-05-24T13:46:40;17.50;92.50
28835;DHT22;15969;51.536;11.884;2023-05-24T13:49:07;17.50;91.20
28835;DHT22;15969;51.536;11.884;2023-05-24T13:51:34;17.70;91.20
28835;DHT22;15969;51.536;11.884;2023-05-24T13:54:00;17.90;91.30
28835;DHT22;15969;51.536;11.884;2023-05-24T13:56:26;18.00;91.00
28835;DHT22;15969;51.536;11.884;2023-05-24T13:58:57;18.00;90.80
28835;DHT22;15969;51.536;11.884;2023-05-24T14:01:24;18.00;90.80
28835;DHT22;15969;51.536;11.884;2023-05-24T14:03:49;18.00;90.30
28835;DHT22;15969;51.536;11.884;2023-05-24T14:06:17;17.90;90.10
28835;DHT22;15969;51.536;11.884;2023-05-24T14:08:44;17.90;90.90
28835;DHT22;15969;51.536;11.884;2023-05-24T14:11:10;17.80;90.50
28835;DHT22;15969;51.536;11.884;2023-05-24T14:13:37;17.80;90.80
28835;DHT22;15969;51.536;11.884;2023-05-24T14:16:03;18.00;90.80
28835;DHT22;15969;51.536;11.884;2023-05-24T14:18:29;17.90;90.10
28835;DHT22;15969;51.536;11.884;2023-05-24T14:20:54;18.00;90.20
28835;DHT22;15969;51.536;11.884;2023-05-24T14:23:20;18.10;89.70
28835;DHT22;15969;51.536;11.884;2023-05-24T14:25:46;18.10;90.00
28835;DHT22;15969;51.536;11.884;2023-05-24T14:28:11;18.00;90.30
28835;DHT22;15969;51.536;11.884;2023-05-24T14:30:37;18.00;90.50
28835;DHT22;15969;51.536;11.884;2023-05-24T14:33:03;17.90;90.20
28835;DHT22;15969;51.536;11.884;2023-05-24T14:35:31;17.90;88.30
28835;DHT22;15969;51.536;11.884;2023-05-24T14:38:07;17.90;86.70
28835;DHT22;15969;51.536;11.884;2023-05-24T14:40:34;17.90;87.90
28835;DHT22;15969;51.536;11.884;2023-05-24T14:43:03;18.00;88.00
28835;DHT22;15969;51.536;11.884;2023-05-24T14:45:29;18.10;88.80
28835;DHT22;15969;51.536;11.884;2023-05-24T14:47:54;18.20;86.30
28835;DHT22;15969;51.536;11.884;2023-05-24T14:50:21;18.30;86.40
28835;DHT22;15969;51.536;11.884;2023-05-24T14:52:47;18.30;85.80
28835;DHT22;15969;51.536;11.884;2023-05-24T14:55:12;18.20;86.70
28835;DHT22;15969;51.536;11.884;2023-05-24T14:57:39;18.10;88.80
28835;DHT22;15969;51.536;11.884;2023-05-24T15:00:06;18.00;90.20
28835;DHT22;15969;51.536;11.884;2023-05-24T15:02:32;18.00;91.10
28835;DHT22;15969;51.536;11.884;2023-05-24T15:04:59;17.80;91.30
28835;DHT22;15969;51.536;11.884;2023-05-24T15:07:25;17.70;91.20
28835;DHT22;15969;51.536;11.884;2023-05-24T15:09:51;17.60;91.70
28835;DHT22;15969;51.536;11.884;2023-05-24T15:12:16;17.50;91.60
28835;DHT22;15969;51.536;11.884;2023-05-24T15:14:42;17.50;91.40
28835;DHT22;15969;51.536;11.884;2023-05-24T15:17:09;17.40;91.40
28835;DHT22;15969;51.536;11.884;2023-05-24T15:19:36;17.40;91.10
28835;DHT22;15969;51.536;11.884;2023-05-24T15:22:01;17.40;92.00
28835;DHT22;15969;51.536;11.884;2023-05-24T15:24:27;17.40;91.60
28835;DHT22;15969;51.536;11.884;2023-05-24T15:26:53;17.40;91.70
28835;DHT22;15969;51.536;11.884;2023-05-24T15:29:18;17.40;91.10
28835;DHT22;15969;51.536;11.884;2023-05-24T15:31:45;17.40;91.70
28835;DHT22;15969;51.536;11.884;2023-05-24T15:34:11;17.40;92.60
28835;DHT22;15969;51.536;11.884;2023-05-24T15:36:36;17.30;92.70
28835;DHT22;15969;51.536;11.884;2023-05-24T15:39:02;17.20;93.20